sensor_id;sensor_type;location;lat;lon;timestamp;P1;durP1;ratioP1;P2;durP2;ratioP2
6693;SDS011;3384;42.628;23.380;2023-04-01T00:00:58;8.50;;;5.60;;
6693;SDS011;3384;42.628;23.380;2023-04-01T00:06:42;14.10;;;6.90;;
6693;SDS011;3384;42.628;23.380;2023-04-01T00:12:14;9.30;;;5.90;;
6693;SDS011;3384;42.628;23.380;2023-04-01T00:14:40;7.27;;;6.50;;
6693;SDS011;3384;42.628;23.380;2023-04-01T00:17:07;14.50;;;6.33;;
6693;SDS011;3384;42.628;23.380;2023-04-01T00:19:34;16.53;;;6.90;;
6693;SDS011;3384;42.628;23.380;2023-04-01T00:22:02;12.07;;;6.70;;
6693;SDS011;3384;42.628;23.380;2023-04-01T00:24:28;8.33;;;5.73;;
6693;SDS011;3384;42.628;23.380;2023-04-01T00:26:55;6.20;;;5.60;;
6693;SDS011;3384;42.628;23.380;2023-04-01T00:29:21;8.80;;;6.80;;
6693;SDS011;3384;42.628;23.380;2023-04-01T00:31:49;8.23;;;5.60;;
6693;SDS011;3384;42.628;23.380;2023-04-01T00:34:15;6.10;;;5.13;;
6693;SDS011;3384;42.628;23.380;2023-04-01T00:36:42;6.63;;;5.30;;
6693;SDS011;3384;42.628;23.380;2023-04-01T00:39:10;4.90;;;4.50;;
6693;SDS011;3384;42.628;23.380;2023-04-01T00:41:36;10.70;;;5.50;;
6693;SDS011;3384;42.628;23.380;2023-04-01T00:44:14;6.73;;;4.63;;
6693;SDS011;3384;42.628;23.380;2023-04-01T00:46:41;13.40;;;4.50;;
6693;SDS011;3384;42.628;23.380;2023-04-01T00:49:07;10.73;;;4.77;;
6693;SDS011;3384;42.628;23.380;2023-04-01T00:51:35;11.83;;;5.70;;
6693;SDS011;3384;42.628;23.380;2023-04-01T00:54:03;10.53;;;6.00;;
6693;SDS011;3384;42.628;23.380;2023-04-01T00:56:32;11.00;;;5.27;;
6693;SDS011;3384;42.628;23.380;2023-04-01T00:59:01;9.63;;;4.60;;
6693;SDS011;3384;42.628;23.380;2023-04-01T01:01:28;15.07;;;5.27;;
6693;SDS011;3384;42.628;23.380;2023-04-01T01:03:56;4.70;;;4.40;;
6693;SDS011;3384;42.628;23.380;2023-04-01T01:09:27;8.10;;;4.50;;
6693;SDS011;3384;42.628;23.380;2023-04-01T01:12:00;11.07;;;4.07;;
6693;SDS011;3384;42.628;23.380;2023-04-01T01:14:53;4.43;;;4.13;;
6693;SDS011;3384;42.628;23.380;2023-04-01T01:17:23;14.03;;;3.70;;
6693;SDS011;3384;42.628;23.380;2023-04-01T01:19:57;5.30;;;4.20;;
6693;SDS011;3384;42.628;23.380;2023-04-01T01:22:31;5.67;;;4.20;;
6693;SDS011;3384;42.628;23.380;2023-04-01T01:25:12;5.03;;;3.43;;
6693;SDS011;3384;42.628;23.380;2023-04-01T01:27:54;4.87;;;3.80;;
6693;SDS011;3384;42.628;23.380;2023-04-01T01:33:52;6.70;;;2.90;;
6693;SDS011;3384;42.628;23.380;2023-04-01T01:39:28;4.40;;;4.07;;
6693;SDS011;3384;42.628;23.380;2023-04-01T01:41:55;5.47;;;3.63;;
6693;SDS011;3384;42.628;23.380;2023-04-01T01:44:22;3.90;;;3.53;;
6693;SDS011;3384;42.628;23.380;2023-04-01T01:46:49;4.20;;;2.70;;
6693;SDS011;3384;42.628;23.380;2023-04-01T01:49:16;5.07;;;2.87;;
6693;SDS011;3384;42.628;23.380;2023-04-01T01:51:43;4.77;;;3.07;;
6693;SDS011;3384;42.628;23.380;2023-04-01T01:54:11;3.43;;;2.50;;
6693;SDS011;3384;42.628;23.380;2023-04-01T01:56:39;4.30;;;2.73;;
6693;SDS011;3384;42.628;23.380;2023-04-01T01:59:08;3.87;;;2.50;;
6693;SDS011;3384;42.628;23.380;2023-04-01T02:01:37;3.27;;;3.00;;
6693;SDS011;3384;42.628;23.380;2023-04-01T02:04:04;5.57;;;3.73;;
6693;SDS011;3384;42.628;23.380;2023-04-01T02:06:32;2.53;;;2.40;;
6693;SDS011;3384;42.628;23.380;2023-04-01T02:09:01;2.87;;;2.60;;
6693;SDS011;3384;42.628;23.380;2023-04-01T02:11:29;9.20;;;2.60;;
6693;SDS011;3384;42.628;23.380;2023-04-01T02:13:58;3.10;;;2.40;;
6693;SDS011;3384;42.628;23.380;2023-04-01T02:16:28;11.90;;;3.50;;
6693;SDS011;3384;42.628;23.380;2023-04-01T02:18:55;6.00;;;2.43;;
6693;SDS011;3384;42.628;23.380;2023-04-01T02:21:23;3.20;;;2.83;;
6693;SDS011;3384;42.628;23.380;2023-04-01T02:23:50;3.87;;;3.00;;
6693;SDS011;3384;42.628;23.380;2023-04-01T02:26:18;5.07;;;2.70;;
6693;SDS011;3384;42.628;23.380;2023-04-01T02:28:45;4.80;;;2.40;;
6693;SDS011;3384;42.628;23.380;2023-04-01T02:31:15;8.53;;;2.67;;
6693;SDS011;3384;42.628;23.380;2023-04-01T02:33:42;5.13;;;2.60;;
6693;SDS011;3384;42.628;23.380;2023-04-01T02:36:10;2.30;;;2.10;;
6693;SDS011;3384;42.628;23.380;2023-04-01T02:38:37;3.53;;;2.47;;
6693;SDS011;3384;42.628;23.380;2023-04-01T02:41:03;2.70;;;1.97;;
6693;SDS011;3384;42.628;23.380;2023-04-01T02:43:30;4.60;;;3.00;;
6693;SDS011;3384;42.628;23.380;2023-04-01T02:45:56;4.13;;;2.63;;
6693;SDS011;3384;42.628;23.380;2023-04-01T02:48:24;3.67;;;2.80;;
6693;SDS011;3384;42.628;23.380;2023-04-01T02:50:51;8.83;;;2.83;;
6693;SDS011;3384;42.628;23.380;2023-04-01T02:53:17;3.20;;;1.83;;
6693;SDS011;3384;42.628;23.380;2023-04-01T02:55:44;5.63;;;2.97;;
6693;SDS011;3384;42.628;23.380;2023-04-01T02:58:11;3.13;;;2.70;;
6693;SDS011;3384;42.628;23.380;2023-04-01T03:00:37;4.53;;;2.27;;
6693;SDS011;3384;42.628;23.380;2023-04-01T03:03:04;7.80;;;2.63;;
6693;SDS011;3384;42.628;23.380;2023-04-01T03:05:32;5.80;;;2.63;;
6693;SDS011;3384;42.628;23.380;2023-04-01T03:07:58;16.50;;;2.87;;
6693;SDS011;3384;42.628;23.380;2023-04-01T03:10:25;3.93;;;2.50;;
6693;SDS011;3384;42.628;23.380;2023-04-01T03:12:51;3.43;;;3.23;;
6693;SDS011;3384;42.628;23.380;2023-04-01T03:15:18;3.20;;;2.80;;
6693;SDS011;3384;42.628;23.380;2023-04-01T03:17:44;6.90;;;3.20;;
6693;SDS011;3384;42.628;23.380;2023-04-01T03:20:12;3.27;;;2.97;;
6693;SDS011;3384;42.628;23.380;2023-04-01T03:25:27;8.07;;;3.33;;
6693;SDS011;3384;42.628;23.380;2023-04-01T03:27:55;7.33;;;1.20;;
6693;SDS011;3384;42.628;23.380;2023-04-01T03:30:24;5.33;;;2.13;;
6693;SDS011;3384;42.628;23.380;2023-04-01T03:32:51;2.80;;;1.43;;
6693;SDS011;3384;42.628;23.380;2023-04-01T03:35:17;5.80;;;1.40;;
6693;SDS011;3384;42.628;23.380;2023-04-01T03:37:44;4.70;;;2.53;;
6693;SDS011;3384;42.628;23.380;2023-04-01T03:40:10;4.03;;;3.10;;
6693;SDS011;3384;42.628;23.380;2023-04-01T03:42:38;3.30;;;2.80;;
6693;SDS011;3384;42.628;23.380;2023-04-01T03:45:05;7.50;;;2.80;;
6693;SDS011;3384;42.628;23.380;2023-04-01T03:47:32;4.70;;;3.60;;
6693;SDS011;3384;42.628;23.380;2023-04-01T03:49:58;9.90;;;3.50;;
6693;SDS011;3384;42.628;23.380;2023-04-01T03:52:25;5.10;;;3.93;;
6693;SDS011;3384;42.628;23.380;2023-04-01T03:54:52;11.93;;;4.40;;
6693;SDS011;3384;42.628;23.380;2023-04-01T03:57:18;10.07;;;4.50;;
6693;SDS011;3384;42.628;23.380;2023-04-01T03:59:46;8.93;;;4.33;;
6693;SDS011;3384;42.628;23.380;2023-04-01T04:02:12;4.47;;;3.77;;
6693;SDS011;3384;42.628;23.380;2023-04-01T04:04:39;13.47;;;4.50;;
6693;SDS011;3384;42.628;23.380;2023-04-01T04:07:06;7.80;;;4.57;;
6693;SDS011;3384;42.628;23.380;2023-04-01T04:09:32;10.47;;;4.03;;
6693;SDS011;3384;42.628;23.380;2023-04-01T04:11:59;6.90;;;4.53;;
6693;SDS011;3384;42.628;23.380;2023-04-01T04:14:26;12.33;;;5.40;;
6693;SDS011;3384;42.628;23.380;2023-04-01T04:16:54;4.00;;;3.60;;
6693;SDS011;3384;42.628;23.380;2023-04-01T04:19:20;4.87;;;4.47;;
6693;SDS011;3384;42.628;23.380;2023-04-01T04:21:47;6.73;;;4.70;;
6693;SDS011;3384;42.628;23.380;2023-04-01T04:24:13;4.93;;;4.50;;
6693;SDS011;3384;42.628;23.380;2023-04-01T04:26:40;11.47;;;5.10;;
6693;SDS011;3384;42.628;23.380;2023-04-01T04:29:06;4.63;;;2.87;;
6693;SDS011;3384;42.628;23.380;2023-04-01T04:31:33;6.03;;;3.97;;
6693;SDS011;3384;42.628;23.380;2023-04-01T04:34:01;7.33;;;3.73;;
6693;SDS011;3384;42.628;23.380;2023-04-01T04:36:27;19.63;;;3.13;;
6693;SDS011;3384;42.628;23.380;2023-04-01T04:38:54;4.33;;;3.00;;
6693;SDS011;3384;42.628;23.380;2023-04-01T04:41:20;4.20;;;2.40;;
6693;SDS011;3384;42.628;23.380;2023-04-01T04:43:49;2.47;;;2.30;;
6693;SDS011;3384;42.628;23.380;2023-04-01T04:46:15;5.00;;;3.10;;
6693;SDS011;3384;42.628;23.380;2023-04-01T04:48:42;5.30;;;2.40;;
6693;SDS011;3384;42.628;23.380;2023-04-01T04:51:13;6.87;;;2.63;;
6693;SDS011;3384;42.628;23.380;2023-04-01T04:53:40;2.50;;;2.27;;
6693;SDS011;3384;42.628;23.380;2023-04-01T04:56:07;3.73;;;2.13;;
6693;SDS011;3384;42.628;23.380;2023-04-01T04:58:33;11.00;;;2.53;;
6693;SDS011;3384;42.628;23.380;2023-04-01T05:01:04;10.00;;;3.40;;
6693;SDS011;3384;42.628;23.380;2023-04-01T05:03:31;10.10;;;1.97;;
6693;SDS011;3384;42.628;23.380;2023-04-01T05:05:57;3.43;;;1.80;;
6693;SDS011;3384;42.628;23.380;2023-04-01T05:08:25;2.97;;;2.33;;
6693;SDS011;3384;42.628;23.380;2023-04-01T05:10:52;8.73;;;2.50;;
6693;SDS011;3384;42.628;23.380;2023-04-01T05:13:18;2.43;;;2.20;;
6693;SDS011;3384;42.628;23.380;2023-04-01T05:15:45;14.63;;;3.03;;
6693;SDS011;3384;42.628;23.380;2023-04-01T05:18:11;4.90;;;3.00;;
6693;SDS011;3384;42.628;23.380;2023-04-01T05:20:38;3.13;;;2.97;;
6693;SDS011;3384;42.628;23.380;2023-04-01T05:23:04;3.37;;;3.07;;
6693;SDS011;3384;42.628;23.380;2023-04-01T05:25:32;6.50;;;2.70;;
6693;SDS011;3384;42.628;23.380;2023-04-01T05:27:59;4.30;;;3.63;;
6693;SDS011;3384;42.628;23.380;2023-04-01T05:30:25;7.10;;;4.07;;
6693;SDS011;3384;42.628;23.380;2023-04-01T05:32:52;5.10;;;4.30;;
6693;SDS011;3384;42.628;23.380;2023-04-01T05:47:34;9.23;;;4.00;;
6693;SDS011;3384;42.628;23.380;2023-04-01T05:50:00;3.93;;;3.73;;
6693;SDS011;3384;42.628;23.380;2023-04-01T05:52:26;4.37;;;3.37;;
6693;SDS011;3384;42.628;23.380;2023-04-01T05:54:53;6.77;;;3.80;;
6693;SDS011;3384;42.628;23.380;2023-04-01T05:57:20;5.07;;;4.63;;
6693;SDS011;3384;42.628;23.380;2023-04-01T05:59:46;6.80;;;4.30;;
6693;SDS011;3384;42.628;23.380;2023-04-01T06:02:13;25.50;;;10.83;;
6693;SDS011;3384;42.628;23.380;2023-04-01T06:04:44;10.63;;;3.60;;
6693;SDS011;3384;42.628;23.380;2023-04-01T06:07:11;12.47;;;4.07;;
6693;SDS011;3384;42.628;23.380;2023-04-01T06:15:48;5.20;;;2.53;;
6693;SDS011;3384;42.628;23.380;2023-04-01T06:21:30;4.10;;;3.80;;
6693;SDS011;3384;42.628;23.380;2023-04-01T06:45:39;4.40;;;3.67;;
6693;SDS011;3384;42.628;23.380;2023-04-01T06:48:14;12.33;;;4.37;;
6693;SDS011;3384;42.628;23.380;2023-04-01T06:50:44;7.73;;;3.63;;
6693;SDS011;3384;42.628;23.380;2023-04-01T06:53:16;3.80;;;3.50;;
6693;SDS011;3384;42.628;23.380;2023-04-01T06:55:44;6.40;;;4.50;;
6693;SDS011;3384;42.628;23.380;2023-04-01T06:58:13;17.13;;;4.27;;
6693;SDS011;3384;42.628;23.380;2023-04-01T07:00:44;5.43;;;3.70;;
6693;SDS011;3384;42.628;23.380;2023-04-01T07:03:14;4.83;;;4.50;;
6693;SDS011;3384;42.628;23.380;2023-04-01T07:05:43;7.63;;;4.00;;
6693;SDS011;3384;42.628;23.380;2023-04-01T07:08:11;11.33;;;4.97;;
6693;SDS011;3384;42.628;23.380;2023-04-01T07:10:41;15.57;;;4.57;;
6693;SDS011;3384;42.628;23.380;2023-04-01T07:13:12;8.87;;;4.30;;
6693;SDS011;3384;42.628;23.380;2023-04-01T07:15:40;5.60;;;3.93;;
6693;SDS011;3384;42.628;23.380;2023-04-01T07:18:10;4.77;;;4.20;;
6693;SDS011;3384;42.628;23.380;2023-04-01T07:20:38;9.03;;;4.57;;
6693;SDS011;3384;42.628;23.380;2023-04-01T07:23:05;10.57;;;4.50;;
6693;SDS011;3384;42.628;23.380;2023-04-01T07:25:34;9.83;;;5.40;;
6693;SDS011;3384;42.628;23.380;2023-04-01T07:28:02;5.50;;;5.00;;
6693;SDS011;3384;42.628;23.380;2023-04-01T07:30:32;12.90;;;4.27;;
6693;SDS011;3384;42.628;23.380;2023-04-01T07:33:03;5.70;;;4.23;;
6693;SDS011;3384;42.628;23.380;2023-04-01T07:35:33;4.57;;;4.17;;
6693;SDS011;3384;42.628;23.380;2023-04-01T07:38:11;13.87;;;4.63;;
6693;SDS011;3384;42.628;23.380;2023-04-01T07:40:43;4.40;;;4.00;;
6693;SDS011;3384;42.628;23.380;2023-04-01T07:43:16;5.23;;;4.17;;
6693;SDS011;3384;42.628;23.380;2023-04-01T07:45:47;8.63;;;4.63;;
6693;SDS011;3384;42.628;23.380;2023-04-01T07:48:18;17.93;;;5.57;;
6693;SDS011;3384;42.628;23.380;2023-04-01T07:50:50;4.70;;;4.23;;
6693;SDS011;3384;42.628;23.380;2023-04-01T07:53:21;6.20;;;4.60;;
6693;SDS011;3384;42.628;23.380;2023-04-01T07:55:50;17.43;;;5.13;;
6693;SDS011;3384;42.628;23.380;2023-04-01T07:58:21;4.87;;;3.10;;
6693;SDS011;3384;42.628;23.380;2023-04-01T08:00:51;6.63;;;4.87;;
6693;SDS011;3384;42.628;23.380;2023-04-01T08:06:12;14.83;;;4.20;;
6693;SDS011;3384;42.628;23.380;2023-04-01T08:08:43;5.83;;;3.83;;
6693;SDS011;3384;42.628;23.380;2023-04-01T08:11:14;8.97;;;4.70;;
6693;SDS011;3384;42.628;23.380;2023-04-01T08:13:45;10.00;;;4.40;;
6693;SDS011;3384;42.628;23.380;2023-04-01T08:16:14;10.10;;;3.77;;
6693;SDS011;3384;42.628;23.380;2023-04-01T08:18:44;10.43;;;4.20;;
6693;SDS011;3384;42.628;23.380;2023-04-01T08:21:15;7.33;;;4.73;;
6693;SDS011;3384;42.628;23.380;2023-04-01T08:23:43;4.37;;;3.60;;
6693;SDS011;3384;42.628;23.380;2023-04-01T08:26:12;4.87;;;3.97;;
6693;SDS011;3384;42.628;23.380;2023-04-01T08:28:40;7.27;;;4.37;;
6693;SDS011;3384;42.628;23.380;2023-04-01T08:31:09;8.30;;;2.90;;
6693;SDS011;3384;42.628;23.380;2023-04-01T08:33:38;3.87;;;3.50;;
6693;SDS011;3384;42.628;23.380;2023-04-01T08:36:07;15.97;;;4.90;;
6693;SDS011;3384;42.628;23.380;2023-04-01T08:38:38;8.73;;;5.10;;
6693;SDS011;3384;42.628;23.380;2023-04-01T08:41:12;7.63;;;3.90;;
6693;SDS011;3384;42.628;23.380;2023-04-01T08:44:23;10.17;;;5.13;;
6693;SDS011;3384;42.628;23.380;2023-04-01T08:46:56;6.23;;;4.13;;
6693;SDS011;3384;42.628;23.380;2023-04-01T08:55:04;4.73;;;4.40;;
6693;SDS011;3384;42.628;23.380;2023-04-01T08:57:40;5.60;;;3.43;;
6693;SDS011;3384;42.628;23.380;2023-04-01T09:00:15;11.93;;;3.97;;
6693;SDS011;3384;42.628;23.380;2023-04-01T09:02:55;8.27;;;4.07;;
6693;SDS011;3384;42.628;23.380;2023-04-01T09:08:28;3.70;;;3.40;;
6693;SDS011;3384;42.628;23.380;2023-04-01T09:11:05;6.77;;;3.70;;
6693;SDS011;3384;42.628;23.380;2023-04-01T09:13:43;4.27;;;2.70;;
6693;SDS011;3384;42.628;23.380;2023-04-01T09:16:36;7.57;;;3.30;;
6693;SDS011;3384;42.628;23.380;2023-04-01T09:19:15;5.70;;;3.50;;
6693;SDS011;3384;42.628;23.380;2023-04-01T09:21:55;5.43;;;3.20;;
6693;SDS011;3384;42.628;23.380;2023-04-01T09:24:35;12.47;;;3.07;;
6693;SDS011;3384;42.628;23.380;2023-04-01T09:27:09;4.43;;;2.73;;
6693;SDS011;3384;42.628;23.380;2023-04-01T09:29:51;4.40;;;3.00;;
6693;SDS011;3384;42.628;23.380;2023-04-01T09:32:25;2.57;;;2.40;;
6693;SDS011;3384;42.628;23.380;2023-04-01T09:34:57;4.10;;;3.23;;
6693;SDS011;3384;42.628;23.380;2023-04-01T09:37:34;3.83;;;2.90;;
6693;SDS011;3384;42.628;23.380;2023-04-01T09:40:08;11.70;;;3.07;;
6693;SDS011;3384;42.628;23.380;2023-04-01T09:42:48;16.27;;;3.30;;
6693;SDS011;3384;42.628;23.380;2023-04-01T09:45:23;7.13;;;3.00;;
6693;SDS011;3384;42.628;23.380;2023-04-01T09:48:00;5.90;;;3.07;;
6693;SDS011;3384;42.628;23.380;2023-04-01T09:50:30;8.00;;;3.80;;
6693;SDS011;3384;42.628;23.380;2023-04-01T09:53:01;2.93;;;2.73;;
6693;SDS011;3384;42.628;23.380;2023-04-01T09:58:30;10.27;;;2.73;;
6693;SDS011;3384;42.628;23.380;2023-04-01T10:04:14;18.57;;;3.80;;
6693;SDS011;3384;42.628;23.380;2023-04-01T10:12:27;6.90;;;5.90;;
6693;SDS011;3384;42.628;23.380;2023-04-01T10:17:50;5.30;;;4.87;;
6693;SDS011;3384;42.628;23.380;2023-04-01T10:23:18;4.03;;;3.70;;
6693;SDS011;3384;42.628;23.380;2023-04-01T10:25:53;15.83;;;5.33;;
6693;SDS011;3384;42.628;23.380;2023-04-01T10:28:30;5.63;;;3.40;;
6693;SDS011;3384;42.628;23.380;2023-04-01T10:34:12;6.80;;;4.13;;
6693;SDS011;3384;42.628;23.380;2023-04-01T10:36:49;12.17;;;3.83;;
6693;SDS011;3384;42.628;23.380;2023-04-01T10:39:27;4.53;;;3.13;;
6693;SDS011;3384;42.628;23.380;2023-04-01T10:45:03;4.73;;;4.10;;
6693;SDS011;3384;42.628;23.380;2023-04-01T10:50:25;5.67;;;3.10;;
6693;SDS011;3384;42.628;23.380;2023-04-01T10:53:10;3.67;;;3.47;;
6693;SDS011;3384;42.628;23.380;2023-04-01T10:58:34;6.50;;;2.60;;
6693;SDS011;3384;42.628;23.380;2023-04-01T11:01:21;8.23;;;4.40;;
6693;SDS011;3384;42.628;23.380;2023-04-01T11:04:18;3.87;;;3.00;;
6693;SDS011;3384;42.628;23.380;2023-04-01T11:06:58;3.87;;;3.17;;
6693;SDS011;3384;42.628;23.380;2023-04-01T11:15:26;4.07;;;2.80;;
6693;SDS011;3384;42.628;23.380;2023-04-01T11:23:44;6.13;;;3.03;;
6693;SDS011;3384;42.628;23.380;2023-04-01T11:26:14;5.87;;;3.60;;
6693;SDS011;3384;42.628;23.380;2023-04-01T11:34:24;7.70;;;2.07;;
6693;SDS011;3384;42.628;23.380;2023-04-01T11:36:57;6.20;;;3.30;;
6693;SDS011;3384;42.628;23.380;2023-04-01T11:39:31;1.70;;;1.60;;
6693;SDS011;3384;42.628;23.380;2023-04-01T11:42:00;1.07;;;0.93;;
6693;SDS011;3384;42.628;23.380;2023-04-01T11:44:31;14.10;;;5.10;;
6693;SDS011;3384;42.628;23.380;2023-04-01T11:47:05;2.23;;;2.03;;
6693;SDS011;3384;42.628;23.380;2023-04-01T11:49:40;2.43;;;2.07;;
6693;SDS011;3384;42.628;23.380;2023-04-01T11:52:26;3.57;;;2.00;;
6693;SDS011;3384;42.628;23.380;2023-04-01T11:55:01;7.93;;;3.33;;
6693;SDS011;3384;42.628;23.380;2023-04-01T11:57:39;6.23;;;2.30;;
6693;SDS011;3384;42.628;23.380;2023-04-01T12:00:14;2.67;;;1.60;;
6693;SDS011;3384;42.628;23.380;2023-04-01T12:02:47;1.80;;;1.70;;
6693;SDS011;3384;42.628;23.380;2023-04-01T12:05:22;4.03;;;1.50;;
6693;SDS011;3384;42.628;23.380;2023-04-01T12:07:53;6.50;;;2.43;;
6693;SDS011;3384;42.628;23.380;2023-04-01T12:10:25;7.43;;;2.30;;
6693;SDS011;3384;42.628;23.380;2023-04-01T12:12:54;6.93;;;2.67;;
6693;SDS011;3384;42.628;23.380;2023-04-01T12:15:26;8.63;;;2.00;;
6693;SDS011;3384;42.628;23.380;2023-04-01T12:17:56;2.60;;;1.30;;
6693;SDS011;3384;42.628;23.380;2023-04-01T12:20:29;2.50;;;2.30;;
6693;SDS011;3384;42.628;23.380;2023-04-01T12:22:58;4.10;;;2.20;;
6693;SDS011;3384;42.628;23.380;2023-04-01T12:25:37;3.77;;;3.20;;
6693;SDS011;3384;42.628;23.380;2023-04-01T12:28:06;2.10;;;1.70;;
6693;SDS011;3384;42.628;23.380;2023-04-01T12:30:37;5.70;;;2.33;;
6693;SDS011;3384;42.628;23.380;2023-04-01T12:33:27;5.23;;;1.97;;
6693;SDS011;3384;42.628;23.380;2023-04-01T12:36:05;4.37;;;2.33;;
6693;SDS011;3384;42.628;23.380;2023-04-01T12:38:36;2.43;;;1.83;;
6693;SDS011;3384;42.628;23.380;2023-04-01T12:41:09;6.07;;;2.10;;
6693;SDS011;3384;42.628;23.380;2023-04-01T12:43:48;3.03;;;2.67;;
6693;SDS011;3384;42.628;23.380;2023-04-01T12:46:19;10.53;;;2.53;;
6693;SDS011;3384;42.628;23.380;2023-04-01T12:48:57;3.33;;;2.03;;
6693;SDS011;3384;42.628;23.380;2023-04-01T12:57:19;3.20;;;2.40;;
6693;SDS011;3384;42.628;23.380;2023-04-01T12:59:53;6.13;;;2.80;;
6693;SDS011;3384;42.628;23.380;2023-04-01T13:02:24;3.37;;;3.17;;
6693;SDS011;3384;42.628;23.380;2023-04-01T13:05:01;7.60;;;5.37;;
6693;SDS011;3384;42.628;23.380;2023-04-01T13:10:24;13.10;;;4.73;;
6693;SDS011;3384;42.628;23.380;2023-04-01T13:15:37;4.53;;;3.10;;
6693;SDS011;3384;42.628;23.380;2023-04-01T13:18:11;23.17;;;3.93;;
6693;SDS011;3384;42.628;23.380;2023-04-01T13:20:43;3.00;;;2.80;;
6693;SDS011;3384;42.628;23.380;2023-04-01T13:23:14;3.70;;;2.37;;
6693;SDS011;3384;42.628;23.380;2023-04-01T13:25:44;6.10;;;3.50;;
6693;SDS011;3384;42.628;23.380;2023-04-01T13:28:15;3.43;;;3.17;;
6693;SDS011;3384;42.628;23.380;2023-04-01T13:30:44;2.83;;;2.73;;
6693;SDS011;3384;42.628;23.380;2023-04-01T13:33:15;2.57;;;2.47;;
6693;SDS011;3384;42.628;23.380;2023-04-01T13:35:43;1.87;;;1.77;;
6693;SDS011;3384;42.628;23.380;2023-04-01T13:38:16;5.23;;;1.67;;
6693;SDS011;3384;42.628;23.380;2023-04-01T13:40:50;2.03;;;0.80;;
6693;SDS011;3384;42.628;23.380;2023-04-01T13:43:19;1.20;;;1.20;;
6693;SDS011;3384;42.628;23.380;2023-04-01T13:46:03;1.33;;;1.33;;
6693;SDS011;3384;42.628;23.380;2023-04-01T13:48:45;0.80;;;0.80;;
6693;SDS011;3384;42.628;23.380;2023-04-01T13:51:31;2.10;;;0.87;;
6693;SDS011;3384;42.628;23.380;2023-04-01T13:54:09;1.30;;;1.20;;
6693;SDS011;3384;42.628;23.380;2023-04-01T13:56:41;1.03;;;1.00;;
6693;SDS011;3384;42.628;23.380;2023-04-01T13:59:19;1.20;;;1.07;;
6693;SDS011;3384;42.628;23.380;2023-04-01T14:01:56;4.00;;;1.30;;
6693;SDS011;3384;42.628;23.380;2023-04-01T14:04:34;0.90;;;0.90;;
6693;SDS011;3384;42.628;23.380;2023-04-01T14:07:08;2.30;;;0.57;;
6693;SDS011;3384;42.628;23.380;2023-04-01T14:09:44;4.73;;;4.53;;
6693;SDS011;3384;42.628;23.380;2023-04-01T14:12:13;4.67;;;4.37;;
6693;SDS011;3384;42.628;23.380;2023-04-01T14:14:47;3.53;;;2.97;;
6693;SDS011;3384;42.628;23.380;2023-04-01T14:17:19;6.23;;;3.70;;
6693;SDS011;3384;42.628;23.380;2023-04-01T14:20:00;6.50;;;4.27;;
6693;SDS011;3384;42.628;23.380;2023-04-01T14:22:30;5.40;;;3.43;;
6693;SDS011;3384;42.628;23.380;2023-04-01T14:27:56;2.80;;;2.70;;
6693;SDS011;3384;42.628;23.380;2023-04-01T14:33:15;5.23;;;2.53;;
6693;SDS011;3384;42.628;23.380;2023-04-01T14:35:49;7.47;;;2.60;;
6693;SDS011;3384;42.628;23.380;2023-04-01T14:41:06;5.60;;;2.70;;
6693;SDS011;3384;42.628;23.380;2023-04-01T14:43:54;9.17;;;3.50;;
6693;SDS011;3384;42.628;23.380;2023-04-01T14:49:15;3.20;;;2.63;;
6693;SDS011;3384;42.628;23.380;2023-04-01T14:51:43;3.53;;;3.33;;
6693;SDS011;3384;42.628;23.380;2023-04-01T14:54:13;2.63;;;2.43;;
6693;SDS011;3384;42.628;23.380;2023-04-01T14:56:48;2.93;;;2.83;;
6693;SDS011;3384;42.628;23.380;2023-04-01T14:59:14;3.33;;;3.10;;
6693;SDS011;3384;42.628;23.380;2023-04-01T15:01:46;6.67;;;5.30;;
6693;SDS011;3384;42.628;23.380;2023-04-01T15:07:05;3.30;;;2.93;;
6693;SDS011;3384;42.628;23.380;2023-04-01T15:09:37;3.27;;;2.90;;
6693;SDS011;3384;42.628;23.380;2023-04-01T15:12:10;4.43;;;2.80;;
6693;SDS011;3384;42.628;23.380;2023-04-01T15:14:42;3.20;;;1.90;;
6693;SDS011;3384;42.628;23.380;2023-04-01T15:17:19;3.70;;;2.30;;
6693;SDS011;3384;42.628;23.380;2023-04-01T15:19:51;2.60;;;2.20;;
6693;SDS011;3384;42.628;23.380;2023-04-01T15:27:52;13.63;;;2.90;;
6693;SDS011;3384;42.628;23.380;2023-04-01T15:35:46;4.60;;;2.57;;
6693;SDS011;3384;42.628;23.380;2023-04-01T15:38:20;6.63;;;3.00;;
6693;SDS011;3384;42.628;23.380;2023-04-01T15:40:52;9.07;;;5.30;;
6693;SDS011;3384;42.628;23.380;2023-04-01T15:43:29;10.10;;;3.93;;
6693;SDS011;3384;42.628;23.380;2023-04-01T15:45:58;6.40;;;3.50;;
6693;SDS011;3384;42.628;23.380;2023-04-01T15:48:41;5.07;;;3.33;;
6693;SDS011;3384;42.628;23.380;2023-04-01T15:51:12;4.10;;;3.13;;
6693;SDS011;3384;42.628;23.380;2023-04-01T15:53:46;3.73;;;2.80;;
6693;SDS011;3384;42.628;23.380;2023-04-01T15:56:19;7.93;;;2.47;;
6693;SDS011;3384;42.628;23.380;2023-04-01T15:58:50;1.30;;;0.93;;
6693;SDS011;3384;42.628;23.380;2023-04-01T16:01:25;0.50;;;0.50;;
6693;SDS011;3384;42.628;23.380;2023-04-01T16:03:54;1.53;;;0.70;;
6693;SDS011;3384;42.628;23.380;2023-04-01T16:06:36;0.60;;;0.53;;
6693;SDS011;3384;42.628;23.380;2023-04-01T16:09:12;1.77;;;1.00;;
6693;SDS011;3384;42.628;23.380;2023-04-01T16:11:44;4.97;;;0.70;;
6693;SDS011;3384;42.628;23.380;2023-04-01T16:14:21;1.77;;;1.77;;
6693;SDS011;3384;42.628;23.380;2023-04-01T16:16:54;0.73;;;0.73;;
6693;SDS011;3384;42.628;23.380;2023-04-01T16:22:13;1.40;;;1.30;;
6693;SDS011;3384;42.628;23.380;2023-04-01T16:24:42;0.97;;;0.97;;
6693;SDS011;3384;42.628;23.380;2023-04-01T16:27:12;1.63;;;1.53;;
6693;SDS011;3384;42.628;23.380;2023-04-01T16:29:43;6.90;;;1.07;;
6693;SDS011;3384;42.628;23.380;2023-04-01T16:32:15;1.50;;;1.50;;
6693;SDS011;3384;42.628;23.380;2023-04-01T16:34:46;1.27;;;1.27;;
6693;SDS011;3384;42.628;23.380;2023-04-01T16:37:15;1.70;;;1.60;;
6693;SDS011;3384;42.628;23.380;2023-04-01T16:39:44;1.10;;;1.10;;
6693;SDS011;3384;42.628;23.380;2023-04-01T16:42:17;1.53;;;1.53;;
6693;SDS011;3384;42.628;23.380;2023-04-01T16:44:49;1.03;;;0.67;;
6693;SDS011;3384;42.628;23.380;2023-04-01T16:47:17;3.73;;;1.60;;
6693;SDS011;3384;42.628;23.380;2023-04-01T16:49:46;2.60;;;0.90;;
6693;SDS011;3384;42.628;23.380;2023-04-01T16:52:16;1.10;;;1.10;;
6693;SDS011;3384;42.628;23.380;2023-04-01T16:54:45;1.00;;;1.00;;
6693;SDS011;3384;42.628;23.380;2023-04-01T16:57:16;0.80;;;0.80;;
6693;SDS011;3384;42.628;23.380;2023-04-01T16:59:45;0.70;;;0.70;;
6693;SDS011;3384;42.628;23.380;2023-04-01T17:02:14;0.63;;;0.63;;
6693;SDS011;3384;42.628;23.380;2023-04-01T17:04:43;0.50;;;0.50;;
6693;SDS011;3384;42.628;23.380;2023-04-01T17:07:11;1.33;;;0.80;;
6693;SDS011;3384;42.628;23.380;2023-04-01T17:09:45;0.40;;;0.40;;
6693;SDS011;3384;42.628;23.380;2023-04-01T17:12:16;1.53;;;0.70;;
6693;SDS011;3384;42.628;23.380;2023-04-01T17:14:46;0.70;;;0.70;;
6693;SDS011;3384;42.628;23.380;2023-04-01T17:17:26;0.90;;;0.90;;
6693;SDS011;3384;42.628;23.380;2023-04-01T17:19:56;0.60;;;0.60;;
6693;SDS011;3384;42.628;23.380;2023-04-01T17:22:27;0.53;;;0.53;;
6693;SDS011;3384;42.628;23.380;2023-04-01T17:25:02;1.10;;;1.10;;
6693;SDS011;3384;42.628;23.380;2023-04-01T17:27:36;0.70;;;0.70;;
6693;SDS011;3384;42.628;23.380;2023-04-01T17:30:17;1.23;;;1.23;;
6693;SDS011;3384;42.628;23.380;2023-04-01T17:32:53;0.70;;;0.70;;
6693;SDS011;3384;42.628;23.380;2023-04-01T17:35:25;0.60;;;0.60;;
6693;SDS011;3384;42.628;23.380;2023-04-01T17:37:58;0.60;;;0.60;;
6693;SDS011;3384;42.628;23.380;2023-04-01T17:40:31;1.10;;;1.00;;
6693;SDS011;3384;42.628;23.380;2023-04-01T17:43:02;0.60;;;0.60;;
6693;SDS011;3384;42.628;23.380;2023-04-01T17:45:33;0.70;;;0.70;;
6693;SDS011;3384;42.628;23.380;2023-04-01T17:48:08;1.17;;;1.17;;
6693;SDS011;3384;42.628;23.380;2023-04-01T17:50:49;4.90;;;4.00;;
6693;SDS011;3384;42.628;23.380;2023-04-01T17:53:21;2.70;;;1.83;;
6693;SDS011;3384;42.628;23.380;2023-04-01T17:55:53;2.50;;;2.30;;
6693;SDS011;3384;42.628;23.380;2023-04-01T17:58:21;1.60;;;1.50;;
6693;SDS011;3384;42.628;23.380;2023-04-01T18:03:44;1.60;;;1.50;;
6693;SDS011;3384;42.628;23.380;2023-04-01T18:06:19;0.90;;;0.90;;